TimeCDT,TemperatureF,Dew PointF,Humidity,Sea Level PressureIn,VisibilityMPH,Wind Direction,Wind SpeedMPH,Gust SpeedMPH,PrecipitationIn,Events,Conditions,WindDirDegrees,DateUTC
12:13 AM,37.4,32.0,81,29.76,10.0,NE,4.6,-,N/A,,Overcast,50,2012-10-16 05:13:00
12:33 AM,39.2,32.0,75,29.75,10.0,ENE,4.6,-,N/A,,Overcast,60,2012-10-16 05:33:00
12:53 AM,39.2,32.0,75,29.75,10.0,ENE,3.5,-,N/A,,Overcast,60,2012-10-16 05:53:00
1:13 AM,39.2,30.2,70,29.74,10.0,ENE,3.5,-,N/A,,Overcast,60,2012-10-16 06:13:00
1:33 AM,39.2,30.2,70,29.72,10.0,ENE,5.8,-,N/A,,Mostly Cloudy,70,2012-10-16 06:33:00
1:53 AM,39.2,30.2,70,29.73,10.0,ENE,6.9,-,N/A,,Mostly Cloudy,60,2012-10-16 06:53:00
2:14 AM,39.2,32.0,75,29.71,10.0,ENE,8.1,-,N/A,,Overcast,70,2012-10-16 07:14:00
2:33 AM,39.2,33.8,81,29.71,10.0,ENE,8.1,-,N/A,,Overcast,70,2012-10-16 07:33:00
2:53 AM,39.2,33.8,81,29.70,10.0,ENE,6.9,-,N/A,,Overcast,70,2012-10-16 07:53:00
3:13 AM,39.2,33.8,81,29.68,10.0,ENE,8.1,-,N/A,,Light Drizzle,60,2012-10-16 08:13:00
3:33 AM,39.2,35.6,87,29.67,10.0,ENE,5.8,-,N/A,,Light Drizzle,70,2012-10-16 08:33:00
3:53 AM,39.2,35.6,87,29.66,10.0,NE,5.8,-,N/A,,Overcast,50,2012-10-16 08:53:00
4:13 AM,39.2,35.6,87,29.66,10.0,ENE,5.8,-,N/A,,Drizzle,70,2012-10-16 09:13:00
4:33 AM,39.2,35.6,87,29.65,10.0,ENE,4.6,-,N/A,,Drizzle,60,2012-10-16 09:33:00
5:33 AM,39.2,35.6,87,29.63,10.0,Calm,Calm,-,N/A,,Drizzle,0,2012-10-16 10:33:00
5:53 AM,39.2,37.4,93,29.62,10.0,Calm,Calm,-,N/A,,Light Drizzle,0,2012-10-16 10:53:00
6:13 AM,39.2,37.4,93,29.61,10.0,Calm,Calm,-,N/A,Rain,Light Rain,0,2012-10-16 11:13:00
6:33 AM,39.2,37.4,93,29.60,10.0,Calm,Calm,-,0.01,,Drizzle,0,2012-10-16 11:33:00
6:53 AM,39.2,37.4,93,29.60,10.0,Calm,Calm,-,N/A,Rain,Rain,0,2012-10-16 11:53:00
7:13 AM,39.2,37.4,93,29.59,10.0,Calm,Calm,-,N/A,,Drizzle,0,2012-10-16 12:13:00
7:33 AM,39.2,37.4,93,29.58,10.0,Calm,Calm,-,0.01,,Drizzle,0,2012-10-16 12:33:00
7:53 AM,39.2,37.4,93,29.57,5.0,Calm,Calm,-,N/A,,Light Drizzle,0,2012-10-16 12:53:00
8:13 AM,39.2,37.4,93,29.58,10.0,Calm,Calm,-,N/A,,Light Drizzle,0,2012-10-16 13:13:00
8:33 AM,41.0,37.4,87,29.58,10.0,Calm,Calm,-,N/A,,Scattered Clouds,0,2012-10-16 13:33:00
8:53 AM,42.8,39.2,87,29.58,7.0,Calm,Calm,-,N/A,,Scattered Clouds,0,2012-10-16 13:53:00
9:13 AM,42.8,39.2,87,29.57,7.0,Calm,Calm,-,N/A,,Light Drizzle,0,2012-10-16 14:13:00
9:33 AM,42.8,39.2,87,29.56,10.0,Calm,Calm,-,N/A,,Clear,0,2012-10-16 14:33:00
9:53 AM,44.6,41.0,87,29.55,10.0,Calm,Calm,-,N/A,,Clear,0,2012-10-16 14:53:00
10:13 AM,46.4,42.8,87,29.55,10.0,Calm,Calm,-,N/A,,Clear,0,2012-10-16 15:13:00
10:33 AM,48.2,42.8,82,29.55,10.0,Calm,Calm,-,N/A,,Clear,0,2012-10-16 15:33:00
10:53 AM,50.0,42.8,76,29.55,10.0,Calm,Calm,-,N/A,,Clear,0,2012-10-16 15:53:00
11:13 AM,50.0,42.8,76,29.54,10.0,SSW,4.6,-,N/A,,Scattered Clouds,210,2012-10-16 16:13:00
11:33 AM,48.2,42.8,82,29.54,10.0,SW,6.9,-,N/A,,Scattered Clouds,220,2012-10-16 16:33:00
11:53 AM,51.8,42.8,71,29.53,10.0,SW,6.9,-,N/A,,Clear,220,2012-10-16 16:53:00
12:13 PM,51.8,42.8,71,29.52,10.0,SSW,9.2,-,N/A,,Clear,210,2012-10-16 17:13:00
12:33 PM,53.6,42.8,67,29.51,10.0,SSW,6.9,-,N/A,,Clear,210,2012-10-16 17:33:00
12:53 PM,55.4,42.8,63,29.50,10.0,SSW,6.9,-,N/A,,Clear,210,2012-10-16 17:53:00
1:13 PM,57.2,42.8,59,29.49,10.0,South,8.1,-,N/A,,Clear,190,2012-10-16 18:13:00
1:33 PM,57.2,42.8,59,29.47,10.0,South,9.2,-,N/A,,Clear,170,2012-10-16 18:33:00
1:53 PM,57.2,42.8,59,29.46,10.0,SSW,8.1,-,N/A,,Clear,200,2012-10-16 18:53:00
2:13 PM,59.0,41.0,51,29.45,10.0,SSW,8.1,-,N/A,,Clear,210,2012-10-16 19:13:00
2:33 PM,59.0,41.0,51,29.45,10.0,South,5.8,-,N/A,,Clear,170,2012-10-16 19:33:00
2:53 PM,59.0,41.0,51,29.45,10.0,South,6.9,-,N/A,,Clear,190,2012-10-16 19:53:00
3:13 PM,60.8,39.2,45,29.44,10.0,South,6.9,-,N/A,,Clear,180,2012-10-16 20:13:00
3:33 PM,59.0,41.0,51,29.44,10.0,South,6.9,-,N/A,,Clear,190,2012-10-16 20:33:00
3:53 PM,59.0,39.2,48,29.43,10.0,South,8.1,-,N/A,,Clear,180,2012-10-16 20:53:00
4:13 PM,57.2,39.2,51,29.43,10.0,South,6.9,-,N/A,,Clear,170,2012-10-16 21:13:00
4:33 PM,55.4,39.2,54,29.43,10.0,South,4.6,-,N/A,,Clear,170,2012-10-16 21:33:00
4:53 PM,55.4,39.2,54,29.43,10.0,South,3.5,-,N/A,,Clear,180,2012-10-16 21:53:00
5:13 PM,55.4,39.2,54,29.43,10.0,Calm,Calm,-,N/A,,Clear,0,2012-10-16 22:13:00
5:33 PM,55.4,39.2,54,29.43,10.0,Calm,Calm,-,N/A,,Clear,0,2012-10-16 22:33:00
5:53 PM,51.8,39.2,62,29.43,10.0,Calm,Calm,-,N/A,,Clear,0,2012-10-16 22:53:00
6:13 PM,48.2,37.4,66,29.42,10.0,Calm,Calm,-,N/A,,Clear,0,2012-10-16 23:13:00
6:33 PM,46.4,37.4,71,29.42,10.0,Calm,Calm,-,N/A,,Clear,0,2012-10-16 23:33:00
6:53 PM,44.6,37.4,76,29.43,10.0,Calm,Calm,-,N/A,,Clear,0,2012-10-16 23:53:00
7:13 PM,44.6,37.4,76,29.43,10.0,Calm,Calm,-,N/A,,Clear,0,2012-10-17 00:13:00
7:33 PM,42.8,39.2,87,29.43,10.0,Calm,Calm,-,N/A,,Clear,0,2012-10-17 00:33:00
7:53 PM,42.8,39.2,87,29.43,10.0,Calm,Calm,-,N/A,,Clear,0,2012-10-17 00:53:00
8:13 PM,42.8,35.6,76,29.43,10.0,Calm,Calm,-,N/A,,Clear,0,2012-10-17 01:13:00
8:33 PM,42.8,39.2,87,29.44,10.0,North,3.5,-,N/A,,Clear,350,2012-10-17 01:33:00
8:53 PM,41.0,35.6,81,29.43,10.0,Calm,Calm,-,N/A,,Clear,0,2012-10-17 01:53:00
9:13 PM,41.0,37.4,87,29.43,10.0,Calm,Calm,-,N/A,,Clear,0,2012-10-17 02:13:00
9:33 PM,41.0,37.4,87,29.43,10.0,Calm,Calm,-,N/A,,Clear,0,2012-10-17 02:33:00
9:53 PM,39.2,33.8,81,29.43,10.0,Calm,Calm,-,N/A,,Clear,0,2012-10-17 02:53:00
10:13 PM,37.4,33.8,87,29.43,10.0,Calm,Calm,-,N/A,,Clear,0,2012-10-17 03:13:00
10:33 PM,37.4,33.8,87,29.42,10.0,Calm,Calm,-,N/A,,Clear,0,2012-10-17 03:33:00
10:53 PM,35.6,33.8,93,29.42,10.0,Calm,Calm,-,N/A,,Clear,0,2012-10-17 03:53:00
11:13 PM,35.6,33.8,93,29.42,10.0,NNE,4.6,-,N/A,,Clear,30,2012-10-17 04:13:00
11:33 PM,39.2,35.6,87,29.42,10.0,NNE,3.5,-,N/A,,Clear,20,2012-10-17 04:33:00
11:53 PM,39.2,35.6,87,29.42,10.0,Calm,Calm,-,N/A,,Clear,0,2012-10-17 04:53:00